sensor_id;sensor_type;location;lat;lon;timestamp;P1;durP1;ratioP1;P2;durP2;ratioP2
56081;SDS011;41957;52.060;5.138;2022-10-17T00:00:01;8.88;;;2.35;;
56081;SDS011;41957;52.060;5.138;2022-10-17T00:02:27;10.77;;;2.78;;
56081;SDS011;41957;52.060;5.138;2022-10-17T00:04:52;8.48;;;2.40;;
56081;SDS011;41957;52.060;5.138;2022-10-17T00:07:18;10.05;;;2.60;;
56081;SDS011;41957;52.060;5.138;2022-10-17T00:09:43;9.93;;;2.60;;
56081;SDS011;41957;52.060;5.138;2022-10-17T00:12:09;8.45;;;2.40;;
56081;SDS011;41957;52.060;5.138;2022-10-17T00:14:35;11.77;;;2.78;;
56081;SDS011;41957;52.060;5.138;2022-10-17T00:17:01;10.23;;;2.63;;
56081;SDS011;41957;52.060;5.138;2022-10-17T00:19:26;10.55;;;2.42;;
56081;SDS011;41957;52.060;5.138;2022-10-17T00:21:51;10.98;;;2.55;;
56081;SDS011;41957;52.060;5.138;2022-10-17T00:24:17;8.65;;;2.28;;
56081;SDS011;41957;52.060;5.138;2022-10-17T00:26:42;7.68;;;2.17;;
56081;SDS011;41957;52.060;5.138;2022-10-17T00:29:08;8.60;;;2.50;;
56081;SDS011;41957;52.060;5.138;2022-10-17T00:31:33;7.93;;;2.33;;
56081;SDS011;41957;52.060;5.138;2022-10-17T00:33:59;10.65;;;2.67;;
56081;SDS011;41957;52.060;5.138;2022-10-17T00:36:25;9.35;;;2.33;;
56081;SDS011;41957;52.060;5.138;2022-10-17T00:38:51;7.38;;;2.10;;
56081;SDS011;41957;52.060;5.138;2022-10-17T00:41:23;9.60;;;2.40;;
56081;SDS011;41957;52.060;5.138;2022-10-17T00:46:23;8.85;;;2.65;;
56081;SDS011;41957;52.060;5.138;2022-10-17T00:48:52;10.32;;;2.53;;
56081;SDS011;41957;52.060;5.138;2022-10-17T00:51:18;8.45;;;2.55;;
56081;SDS011;41957;52.060;5.138;2022-10-17T00:53:47;7.38;;;2.17;;
56081;SDS011;41957;52.060;5.138;2022-10-17T00:56:13;9.80;;;2.53;;
56081;SDS011;41957;52.060;5.138;2022-10-17T00:58:40;7.75;;;2.30;;
56081;SDS011;41957;52.060;5.138;2022-10-17T01:01:05;8.68;;;2.20;;
56081;SDS011;41957;52.060;5.138;2022-10-17T01:03:30;9.90;;;2.67;;
56081;SDS011;41957;52.060;5.138;2022-10-17T01:05:56;8.80;;;2.30;;
56081;SDS011;41957;52.060;5.138;2022-10-17T01:08:21;8.00;;;2.35;;
56081;SDS011;41957;52.060;5.138;2022-10-17T01:16:00;10.40;;;2.50;;
56081;SDS011;41957;52.060;5.138;2022-10-17T01:29:58;9.70;;;2.60;;
56081;SDS011;41957;52.060;5.138;2022-10-17T01:32:33;9.43;;;2.70;;
56081;SDS011;41957;52.060;5.138;2022-10-17T01:35:09;9.98;;;2.80;;
56081;SDS011;41957;52.060;5.138;2022-10-17T01:37:45;8.95;;;2.42;;
56081;SDS011;41957;52.060;5.138;2022-10-17T01:43:15;10.25;;;2.38;;
56081;SDS011;41957;52.060;5.138;2022-10-17T01:45:48;9.15;;;2.47;;
56081;SDS011;41957;52.060;5.138;2022-10-17T01:48:20;8.43;;;2.40;;
56081;SDS011;41957;52.060;5.138;2022-10-17T01:50:49;9.15;;;2.72;;
56081;SDS011;41957;52.060;5.138;2022-10-17T01:53:23;9.55;;;2.47;;
56081;SDS011;41957;52.060;5.138;2022-10-17T01:55:54;9.60;;;2.53;;
56081;SDS011;41957;52.060;5.138;2022-10-17T01:58:28;9.82;;;2.42;;
56081;SDS011;41957;52.060;5.138;2022-10-17T02:01:02;7.72;;;2.20;;
56081;SDS011;41957;52.060;5.138;2022-10-17T02:03:30;10.85;;;2.67;;
56081;SDS011;41957;52.060;5.138;2022-10-17T02:05:58;9.52;;;2.60;;
56081;SDS011;41957;52.060;5.138;2022-10-17T02:08:25;9.27;;;2.50;;
56081;SDS011;41957;52.060;5.138;2022-10-17T02:11:02;9.32;;;2.40;;
56081;SDS011;41957;52.060;5.138;2022-10-17T02:16:11;11.10;;;2.83;;
56081;SDS011;41957;52.060;5.138;2022-10-17T02:18:56;9.23;;;2.25;;
56081;SDS011;41957;52.060;5.138;2022-10-17T02:24:16;9.45;;;2.50;;
56081;SDS011;41957;52.060;5.138;2022-10-17T02:26:54;8.77;;;2.47;;
56081;SDS011;41957;52.060;5.138;2022-10-17T02:29:32;9.52;;;2.78;;
56081;SDS011;41957;52.060;5.138;2022-10-17T02:32:04;9.85;;;2.10;;
56081;SDS011;41957;52.060;5.138;2022-10-17T02:34:34;10.07;;;2.75;;
56081;SDS011;41957;52.060;5.138;2022-10-17T02:37:06;8.75;;;2.38;;
56081;SDS011;41957;52.060;5.138;2022-10-17T02:39:33;8.68;;;2.28;;
56081;SDS011;41957;52.060;5.138;2022-10-17T02:42:01;8.75;;;2.47;;
56081;SDS011;41957;52.060;5.138;2022-10-17T02:44:30;10.25;;;2.55;;
56081;SDS011;41957;52.060;5.138;2022-10-17T02:47:02;9.80;;;2.65;;
56081;SDS011;41957;52.060;5.138;2022-10-17T02:49:37;7.63;;;2.53;;
56081;SDS011;41957;52.060;5.138;2022-10-17T02:57:26;9.88;;;2.70;;
56081;SDS011;41957;52.060;5.138;2022-10-17T03:00:03;8.63;;;2.22;;
56081;SDS011;41957;52.060;5.138;2022-10-17T03:02:43;9.20;;;2.53;;
56081;SDS011;41957;52.060;5.138;2022-10-17T03:05:14;8.45;;;2.40;;
56081;SDS011;41957;52.060;5.138;2022-10-17T03:10:14;9.40;;;2.42;;
56081;SDS011;41957;52.060;5.138;2022-10-17T03:12:39;9.52;;;2.33;;
56081;SDS011;41957;52.060;5.138;2022-10-17T03:15:05;9.43;;;2.45;;
56081;SDS011;41957;52.060;5.138;2022-10-17T03:17:31;9.52;;;2.78;;
56081;SDS011;41957;52.060;5.138;2022-10-17T03:19:57;8.38;;;2.33;;
56081;SDS011;41957;52.060;5.138;2022-10-17T03:22:23;9.05;;;2.47;;
56081;SDS011;41957;52.060;5.138;2022-10-17T03:24:48;7.82;;;2.40;;
56081;SDS011;41957;52.060;5.138;2022-10-17T03:27:13;8.45;;;2.30;;
56081;SDS011;41957;52.060;5.138;2022-10-17T03:29:39;9.43;;;2.25;;
56081;SDS011;41957;52.060;5.138;2022-10-17T03:32:04;9.57;;;2.50;;
56081;SDS011;41957;52.060;5.138;2022-10-17T03:34:30;10.75;;;2.70;;
56081;SDS011;41957;52.060;5.138;2022-10-17T03:36:55;8.63;;;2.45;;
56081;SDS011;41957;52.060;5.138;2022-10-17T03:39:20;9.85;;;2.60;;
56081;SDS011;41957;52.060;5.138;2022-10-17T03:41:46;9.38;;;2.70;;
56081;SDS011;41957;52.060;5.138;2022-10-17T03:44:11;11.65;;;2.50;;
56081;SDS011;41957;52.060;5.138;2022-10-17T03:46:36;10.13;;;2.72;;
56081;SDS011;41957;52.060;5.138;2022-10-17T03:49:02;9.05;;;2.80;;
56081;SDS011;41957;52.060;5.138;2022-10-17T03:51:27;8.60;;;2.38;;
56081;SDS011;41957;52.060;5.138;2022-10-17T03:53:53;8.88;;;2.47;;
56081;SDS011;41957;52.060;5.138;2022-10-17T03:56:22;10.80;;;2.40;;
56081;SDS011;41957;52.060;5.138;2022-10-17T03:58:49;9.35;;;2.63;;
56081;SDS011;41957;52.060;5.138;2022-10-17T04:01:15;9.65;;;2.50;;
56081;SDS011;41957;52.060;5.138;2022-10-17T04:03:41;9.18;;;2.45;;
56081;SDS011;41957;52.060;5.138;2022-10-17T04:06:07;10.20;;;2.53;;
56081;SDS011;41957;52.060;5.138;2022-10-17T04:08:36;9.23;;;2.47;;
56081;SDS011;41957;52.060;5.138;2022-10-17T04:11:02;8.57;;;2.40;;
56081;SDS011;41957;52.060;5.138;2022-10-17T04:13:29;10.15;;;2.63;;
56081;SDS011;41957;52.060;5.138;2022-10-17T04:15:59;8.77;;;2.50;;
56081;SDS011;41957;52.060;5.138;2022-10-17T04:18:26;10.63;;;2.90;;
56081;SDS011;41957;52.060;5.138;2022-10-17T04:20:51;9.18;;;2.47;;
56081;SDS011;41957;52.060;5.138;2022-10-17T04:23:17;8.63;;;2.60;;
56081;SDS011;41957;52.060;5.138;2022-10-17T04:25:42;9.50;;;2.50;;
56081;SDS011;41957;52.060;5.138;2022-10-17T04:28:07;10.02;;;3.00;;
56081;SDS011;41957;52.060;5.138;2022-10-17T04:30:33;8.23;;;2.47;;
56081;SDS011;41957;52.060;5.138;2022-10-17T04:32:58;10.65;;;2.50;;
56081;SDS011;41957;52.060;5.138;2022-10-17T04:35:23;10.50;;;2.70;;
56081;SDS011;41957;52.060;5.138;2022-10-17T04:37:49;12.88;;;2.92;;
56081;SDS011;41957;52.060;5.138;2022-10-17T04:40:14;9.77;;;2.78;;
56081;SDS011;41957;52.060;5.138;2022-10-17T04:42:39;8.80;;;2.50;;
56081;SDS011;41957;52.060;5.138;2022-10-17T04:45:05;9.02;;;2.35;;
56081;SDS011;41957;52.060;5.138;2022-10-17T04:47:31;8.32;;;2.75;;
56081;SDS011;41957;52.060;5.138;2022-10-17T04:49:56;8.32;;;2.50;;
56081;SDS011;41957;52.060;5.138;2022-10-17T04:52:21;9.98;;;2.88;;
56081;SDS011;41957;52.060;5.138;2022-10-17T04:54:47;10.02;;;2.75;;
56081;SDS011;41957;52.060;5.138;2022-10-17T04:57:12;9.75;;;2.88;;
56081;SDS011;41957;52.060;5.138;2022-10-17T04:59:37;9.60;;;2.92;;
56081;SDS011;41957;52.060;5.138;2022-10-17T05:02:03;8.98;;;2.30;;
56081;SDS011;41957;52.060;5.138;2022-10-17T05:04:28;10.77;;;3.03;;
56081;SDS011;41957;52.060;5.138;2022-10-17T05:06:53;10.60;;;2.97;;
56081;SDS011;41957;52.060;5.138;2022-10-17T05:09:19;10.43;;;2.90;;
56081;SDS011;41957;52.060;5.138;2022-10-17T05:11:44;11.43;;;2.92;;
56081;SDS011;41957;52.060;5.138;2022-10-17T05:14:09;10.43;;;3.08;;
56081;SDS011;41957;52.060;5.138;2022-10-17T05:16:35;9.90;;;3.00;;
56081;SDS011;41957;52.060;5.138;2022-10-17T05:19:00;10.40;;;3.10;;
56081;SDS011;41957;52.060;5.138;2022-10-17T05:21:26;9.15;;;2.92;;
56081;SDS011;41957;52.060;5.138;2022-10-17T05:23:53;9.93;;;2.80;;
56081;SDS011;41957;52.060;5.138;2022-10-17T05:26:19;10.23;;;3.10;;
56081;SDS011;41957;52.060;5.138;2022-10-17T05:28:45;9.30;;;2.78;;
56081;SDS011;41957;52.060;5.138;2022-10-17T05:31:11;9.98;;;2.95;;
56081;SDS011;41957;52.060;5.138;2022-10-17T05:33:37;9.35;;;2.75;;
56081;SDS011;41957;52.060;5.138;2022-10-17T05:36:03;10.35;;;3.08;;
56081;SDS011;41957;52.060;5.138;2022-10-17T05:38:29;9.90;;;3.05;;
56081;SDS011;41957;52.060;5.138;2022-10-17T05:40:57;10.65;;;3.00;;
56081;SDS011;41957;52.060;5.138;2022-10-17T05:43:24;11.27;;;2.80;;
56081;SDS011;41957;52.060;5.138;2022-10-17T05:45:49;13.50;;;3.20;;
56081;SDS011;41957;52.060;5.138;2022-10-17T05:48:15;10.70;;;3.35;;
56081;SDS011;41957;52.060;5.138;2022-10-17T05:50:40;9.15;;;3.00;;
56081;SDS011;41957;52.060;5.138;2022-10-17T05:53:06;9.52;;;2.85;;
56081;SDS011;41957;52.060;5.138;2022-10-17T05:55:31;10.30;;;3.00;;
56081;SDS011;41957;52.060;5.138;2022-10-17T05:57:58;10.70;;;3.03;;
56081;SDS011;41957;52.060;5.138;2022-10-17T06:00:24;9.73;;;3.00;;
56081;SDS011;41957;52.060;5.138;2022-10-17T06:02:49;9.90;;;3.00;;
56081;SDS011;41957;52.060;5.138;2022-10-17T06:05:15;16.85;;;3.00;;
56081;SDS011;41957;52.060;5.138;2022-10-17T06:07:41;9.88;;;2.88;;
56081;SDS011;41957;52.060;5.138;2022-10-17T06:10:07;9.90;;;2.70;;
56081;SDS011;41957;52.060;5.138;2022-10-17T06:12:32;11.57;;;3.38;;
56081;SDS011;41957;52.060;5.138;2022-10-17T06:14:58;12.93;;;3.60;;
56081;SDS011;41957;52.060;5.138;2022-10-17T06:17:23;11.68;;;3.25;;
56081;SDS011;41957;52.060;5.138;2022-10-17T06:19:49;11.50;;;3.38;;
56081;SDS011;41957;52.060;5.138;2022-10-17T06:22:14;11.35;;;3.20;;
56081;SDS011;41957;52.060;5.138;2022-10-17T06:24:39;10.30;;;3.00;;
56081;SDS011;41957;52.060;5.138;2022-10-17T06:27:06;9.80;;;3.45;;
56081;SDS011;41957;52.060;5.138;2022-10-17T06:29:31;9.95;;;3.25;;
56081;SDS011;41957;52.060;5.138;2022-10-17T06:31:56;13.38;;;3.10;;
56081;SDS011;41957;52.060;5.138;2022-10-17T06:34:22;10.88;;;3.47;;
56081;SDS011;41957;52.060;5.138;2022-10-17T06:36:47;11.45;;;3.15;;
56081;SDS011;41957;52.060;5.138;2022-10-17T06:39:13;11.73;;;3.70;;
56081;SDS011;41957;52.060;5.138;2022-10-17T06:41:38;12.07;;;3.30;;
56081;SDS011;41957;52.060;5.138;2022-10-17T06:44:05;10.40;;;3.50;;
56081;SDS011;41957;52.060;5.138;2022-10-17T06:46:35;11.27;;;3.20;;
56081;SDS011;41957;52.060;5.138;2022-10-17T06:49:00;15.63;;;3.35;;
56081;SDS011;41957;52.060;5.138;2022-10-17T06:51:26;13.52;;;3.97;;
56081;SDS011;41957;52.060;5.138;2022-10-17T06:53:51;11.10;;;3.83;;
56081;SDS011;41957;52.060;5.138;2022-10-17T06:56:16;16.25;;;3.50;;
56081;SDS011;41957;52.060;5.138;2022-10-17T06:58:43;13.65;;;3.55;;
56081;SDS011;41957;52.060;5.138;2022-10-17T07:01:13;11.85;;;3.55;;
56081;SDS011;41957;52.060;5.138;2022-10-17T07:03:39;11.73;;;3.58;;
56081;SDS011;41957;52.060;5.138;2022-10-17T07:06:05;14.95;;;3.92;;
56081;SDS011;41957;52.060;5.138;2022-10-17T07:08:31;12.73;;;3.22;;
56081;SDS011;41957;52.060;5.138;2022-10-17T07:10:57;10.63;;;3.35;;
56081;SDS011;41957;52.060;5.138;2022-10-17T07:13:22;13.70;;;3.85;;
56081;SDS011;41957;52.060;5.138;2022-10-17T07:15:48;11.57;;;3.70;;
56081;SDS011;41957;52.060;5.138;2022-10-17T07:18:13;11.10;;;3.78;;
56081;SDS011;41957;52.060;5.138;2022-10-17T07:20:39;12.40;;;3.47;;
56081;SDS011;41957;52.060;5.138;2022-10-17T07:23:04;11.32;;;3.33;;
56081;SDS011;41957;52.060;5.138;2022-10-17T07:25:30;11.35;;;3.50;;
56081;SDS011;41957;52.060;5.138;2022-10-17T07:27:56;11.45;;;3.72;;
56081;SDS011;41957;52.060;5.138;2022-10-17T07:30:21;11.98;;;3.60;;
56081;SDS011;41957;52.060;5.138;2022-10-17T07:32:47;12.20;;;3.60;;
56081;SDS011;41957;52.060;5.138;2022-10-17T07:35:13;12.05;;;3.58;;
56081;SDS011;41957;52.060;5.138;2022-10-17T07:37:39;11.00;;;3.30;;
56081;SDS011;41957;52.060;5.138;2022-10-17T07:40:05;11.70;;;3.50;;
56081;SDS011;41957;52.060;5.138;2022-10-17T07:42:32;12.60;;;3.80;;
56081;SDS011;41957;52.060;5.138;2022-10-17T07:45:00;10.75;;;3.38;;
56081;SDS011;41957;52.060;5.138;2022-10-17T07:47:25;13.60;;;4.25;;
56081;SDS011;41957;52.060;5.138;2022-10-17T07:49:50;11.95;;;3.75;;
56081;SDS011;41957;52.060;5.138;2022-10-17T07:52:16;12.35;;;4.00;;
56081;SDS011;41957;52.060;5.138;2022-10-17T07:54:41;13.52;;;3.80;;
56081;SDS011;41957;52.060;5.138;2022-10-17T07:57:07;13.43;;;4.13;;
56081;SDS011;41957;52.060;5.138;2022-10-17T07:59:33;14.18;;;3.80;;
56081;SDS011;41957;52.060;5.138;2022-10-17T08:01:59;13.63;;;3.90;;
56081;SDS011;41957;52.060;5.138;2022-10-17T08:04:25;11.65;;;3.88;;
56081;SDS011;41957;52.060;5.138;2022-10-17T08:06:51;12.30;;;4.13;;
56081;SDS011;41957;52.060;5.138;2022-10-17T08:09:17;13.20;;;3.60;;
56081;SDS011;41957;52.060;5.138;2022-10-17T08:11:42;14.80;;;3.78;;
56081;SDS011;41957;52.060;5.138;2022-10-17T08:14:08;11.95;;;3.50;;
56081;SDS011;41957;52.060;5.138;2022-10-17T08:16:34;11.70;;;3.58;;
56081;SDS011;41957;52.060;5.138;2022-10-17T08:19:00;12.30;;;4.18;;
56081;SDS011;41957;52.060;5.138;2022-10-17T08:21:26;10.88;;;3.75;;
56081;SDS011;41957;52.060;5.138;2022-10-17T08:23:51;11.35;;;3.53;;
56081;SDS011;41957;52.060;5.138;2022-10-17T08:26:17;11.93;;;3.60;;
56081;SDS011;41957;52.060;5.138;2022-10-17T08:28:44;10.77;;;3.55;;
56081;SDS011;41957;52.060;5.138;2022-10-17T08:31:10;11.77;;;3.75;;
56081;SDS011;41957;52.060;5.138;2022-10-17T08:33:38;10.80;;;3.85;;
56081;SDS011;41957;52.060;5.138;2022-10-17T08:36:04;11.63;;;3.90;;
56081;SDS011;41957;52.060;5.138;2022-10-17T08:38:30;12.20;;;3.95;;
56081;SDS011;41957;52.060;5.138;2022-10-17T08:41:00;14.15;;;3.95;;
56081;SDS011;41957;52.060;5.138;2022-10-17T08:46:19;11.70;;;3.72;;
56081;SDS011;41957;52.060;5.138;2022-10-17T08:48:45;12.05;;;3.72;;
56081;SDS011;41957;52.060;5.138;2022-10-17T08:53:55;11.50;;;3.72;;
56081;SDS011;41957;52.060;5.138;2022-10-17T08:56:39;12.82;;;3.97;;
56081;SDS011;41957;52.060;5.138;2022-10-17T08:59:22;11.68;;;3.80;;
56081;SDS011;41957;52.060;5.138;2022-10-17T09:01:57;11.77;;;3.60;;
56081;SDS011;41957;52.060;5.138;2022-10-17T09:07:08;16.40;;;4.30;;
56081;SDS011;41957;52.060;5.138;2022-10-17T09:12:22;13.45;;;4.05;;
56081;SDS011;41957;52.060;5.138;2022-10-17T09:17:46;14.98;;;4.28;;
56081;SDS011;41957;52.060;5.138;2022-10-17T09:20:26;13.48;;;4.38;;
56081;SDS011;41957;52.060;5.138;2022-10-17T09:23:03;11.90;;;4.18;;
56081;SDS011;41957;52.060;5.138;2022-10-17T09:25:44;12.02;;;4.18;;
56081;SDS011;41957;52.060;5.138;2022-10-17T09:31:04;13.82;;;4.15;;
56081;SDS011;41957;52.060;5.138;2022-10-17T09:33:36;12.43;;;4.40;;
56081;SDS011;41957;52.060;5.138;2022-10-17T09:36:10;13.27;;;4.00;;
56081;SDS011;41957;52.060;5.138;2022-10-17T09:38:42;11.07;;;4.15;;
56081;SDS011;41957;52.060;5.138;2022-10-17T09:41:15;13.18;;;4.32;;
56081;SDS011;41957;52.060;5.138;2022-10-17T09:43:42;11.68;;;4.20;;
56081;SDS011;41957;52.060;5.138;2022-10-17T09:48:54;13.32;;;4.40;;
56081;SDS011;41957;52.060;5.138;2022-10-17T09:51:25;14.82;;;5.03;;
56081;SDS011;41957;52.060;5.138;2022-10-17T09:53:55;13.70;;;4.78;;
56081;SDS011;41957;52.060;5.138;2022-10-17T09:56:25;15.13;;;4.80;;
56081;SDS011;41957;52.060;5.138;2022-10-17T09:58:52;14.93;;;4.40;;
56081;SDS011;41957;52.060;5.138;2022-10-17T10:01:22;15.77;;;4.95;;
56081;SDS011;41957;52.060;5.138;2022-10-17T10:04:14;16.80;;;4.80;;
56081;SDS011;41957;52.060;5.138;2022-10-17T10:07:00;14.10;;;4.57;;
56081;SDS011;41957;52.060;5.138;2022-10-17T10:09:30;15.07;;;4.80;;
56081;SDS011;41957;52.060;5.138;2022-10-17T10:11:58;14.23;;;4.65;;
56081;SDS011;41957;52.060;5.138;2022-10-17T10:16:57;16.05;;;4.38;;
56081;SDS011;41957;52.060;5.138;2022-10-17T10:19:34;14.07;;;4.70;;
56081;SDS011;41957;52.060;5.138;2022-10-17T10:24:28;14.15;;;4.30;;
56081;SDS011;41957;52.060;5.138;2022-10-17T10:26:55;15.75;;;4.82;;
56081;SDS011;41957;52.060;5.138;2022-10-17T10:35:05;13.65;;;4.38;;
56081;SDS011;41957;52.060;5.138;2022-10-17T10:37:45;14.15;;;4.72;;
56081;SDS011;41957;52.060;5.138;2022-10-17T10:40:24;14.65;;;4.22;;
56081;SDS011;41957;52.060;5.138;2022-10-17T10:42:53;13.55;;;4.70;;
56081;SDS011;41957;52.060;5.138;2022-10-17T10:45:28;13.68;;;4.30;;
56081;SDS011;41957;52.060;5.138;2022-10-17T10:51:30;13.55;;;4.55;;
56081;SDS011;41957;52.060;5.138;2022-10-17T10:56:36;12.35;;;3.70;;
56081;SDS011;41957;52.060;5.138;2022-10-17T10:59:06;12.13;;;4.40;;
56081;SDS011;41957;52.060;5.138;2022-10-17T11:07:03;11.32;;;4.28;;
56081;SDS011;41957;52.060;5.138;2022-10-17T11:12:43;13.30;;;4.20;;
56081;SDS011;41957;52.060;5.138;2022-10-17T11:15:33;11.90;;;4.28;;
56081;SDS011;41957;52.060;5.138;2022-10-17T11:18:21;15.32;;;4.65;;
56081;SDS011;41957;52.060;5.138;2022-10-17T11:20:53;13.55;;;4.35;;
56081;SDS011;41957;52.060;5.138;2022-10-17T11:23:35;13.82;;;4.22;;
56081;SDS011;41957;52.060;5.138;2022-10-17T11:26:09;12.57;;;4.20;;
56081;SDS011;41957;52.060;5.138;2022-10-17T11:28:39;12.52;;;4.15;;
56081;SDS011;41957;52.060;5.138;2022-10-17T11:31:08;13.30;;;4.22;;
56081;SDS011;41957;52.060;5.138;2022-10-17T11:36:11;11.38;;;3.58;;
56081;SDS011;41957;52.060;5.138;2022-10-17T11:38:44;10.52;;;3.70;;
56081;SDS011;41957;52.060;5.138;2022-10-17T11:41:16;11.45;;;3.97;;
56081;SDS011;41957;52.060;5.138;2022-10-17T11:43:49;12.05;;;4.00;;
56081;SDS011;41957;52.060;5.138;2022-10-17T11:46:36;12.82;;;4.30;;
56081;SDS011;41957;52.060;5.138;2022-10-17T11:52:36;12.18;;;4.30;;
56081;SDS011;41957;52.060;5.138;2022-10-17T11:55:02;12.38;;;4.10;;
56081;SDS011;41957;52.060;5.138;2022-10-17T12:01:01;12.80;;;4.20;;
56081;SDS011;41957;52.060;5.138;2022-10-17T12:11:30;11.20;;;3.78;;
56081;SDS011;41957;52.060;5.138;2022-10-17T12:17:05;11.00;;;3.78;;
56081;SDS011;41957;52.060;5.138;2022-10-17T12:19:46;11.98;;;4.10;;
56081;SDS011;41957;52.060;5.138;2022-10-17T12:24:44;11.57;;;4.00;;
56081;SDS011;41957;52.060;5.138;2022-10-17T12:27:31;11.98;;;3.55;;
56081;SDS011;41957;52.060;5.138;2022-10-17T12:30:24;10.90;;;3.60;;
56081;SDS011;41957;52.060;5.138;2022-10-17T12:32:52;11.70;;;4.30;;
56081;SDS011;41957;52.060;5.138;2022-10-17T12:35:24;12.23;;;3.85;;
56081;SDS011;41957;52.060;5.138;2022-10-17T12:40:45;11.90;;;3.78;;
56081;SDS011;41957;52.060;5.138;2022-10-17T12:45:58;11.35;;;3.45;;
56081;SDS011;41957;52.060;5.138;2022-10-17T12:53:42;11.55;;;3.47;;
56081;SDS011;41957;52.060;5.138;2022-10-17T12:56:20;11.38;;;3.83;;
56081;SDS011;41957;52.060;5.138;2022-10-17T12:58:54;11.75;;;3.80;;
56081;SDS011;41957;52.060;5.138;2022-10-17T13:01:29;14.55;;;3.45;;
56081;SDS011;41957;52.060;5.138;2022-10-17T13:03:56;10.95;;;3.33;;
56081;SDS011;41957;52.060;5.138;2022-10-17T13:06:27;10.75;;;3.30;;
56081;SDS011;41957;52.060;5.138;2022-10-17T13:08:59;11.45;;;3.72;;
56081;SDS011;41957;52.060;5.138;2022-10-17T13:11:29;10.95;;;3.22;;
56081;SDS011;41957;52.060;5.138;2022-10-17T13:13:57;11.65;;;3.78;;
56081;SDS011;41957;52.060;5.138;2022-10-17T13:16:42;10.63;;;3.70;;
56081;SDS011;41957;52.060;5.138;2022-10-17T13:19:17;10.25;;;3.63;;
56081;SDS011;41957;52.060;5.138;2022-10-17T13:24:33;11.60;;;3.78;;
56081;SDS011;41957;52.060;5.138;2022-10-17T13:27:00;10.65;;;3.67;;
56081;SDS011;41957;52.060;5.138;2022-10-17T13:29:26;10.95;;;3.78;;
56081;SDS011;41957;52.060;5.138;2022-10-17T13:31:55;10.77;;;3.40;;
56081;SDS011;41957;52.060;5.138;2022-10-17T13:34:25;12.20;;;3.88;;
56081;SDS011;41957;52.060;5.138;2022-10-17T13:36:55;11.70;;;3.92;;
56081;SDS011;41957;52.060;5.138;2022-10-17T13:39:23;10.75;;;3.58;;
56081;SDS011;41957;52.060;5.138;2022-10-17T13:41:54;11.38;;;3.80;;
56081;SDS011;41957;52.060;5.138;2022-10-17T13:44:23;10.48;;;3.33;;
56081;SDS011;41957;52.060;5.138;2022-10-17T13:46:51;11.68;;;3.53;;
56081;SDS011;41957;52.060;5.138;2022-10-17T13:51:51;11.35;;;3.85;;
56081;SDS011;41957;52.060;5.138;2022-10-17T13:54:24;11.38;;;3.28;;
56081;SDS011;41957;52.060;5.138;2022-10-17T13:56:56;10.50;;;3.28;;
56081;SDS011;41957;52.060;5.138;2022-10-17T13:59:24;11.20;;;3.53;;
56081;SDS011;41957;52.060;5.138;2022-10-17T14:01:54;11.25;;;3.60;;
56081;SDS011;41957;52.060;5.138;2022-10-17T14:04:20;11.15;;;3.45;;
56081;SDS011;41957;52.060;5.138;2022-10-17T14:06:46;10.75;;;3.55;;
56081;SDS011;41957;52.060;5.138;2022-10-17T14:09:22;11.77;;;3.58;;
56081;SDS011;41957;52.060;5.138;2022-10-17T14:12:00;11.25;;;3.72;;
56081;SDS011;41957;52.060;5.138;2022-10-17T14:14:30;11.82;;;3.60;;
56081;SDS011;41957;52.060;5.138;2022-10-17T14:16:56;10.45;;;3.42;;
56081;SDS011;41957;52.060;5.138;2022-10-17T14:21:52;11.95;;;3.92;;
56081;SDS011;41957;52.060;5.138;2022-10-17T14:26:51;10.25;;;3.42;;
56081;SDS011;41957;52.060;5.138;2022-10-17T14:31:49;10.90;;;3.90;;
56081;SDS011;41957;52.060;5.138;2022-10-17T14:34:24;11.55;;;3.92;;
56081;SDS011;41957;52.060;5.138;2022-10-17T14:36:53;11.13;;;3.90;;
56081;SDS011;41957;52.060;5.138;2022-10-17T14:39:21;10.30;;;3.45;;
56081;SDS011;41957;52.060;5.138;2022-10-17T14:41:49;10.48;;;3.60;;
56081;SDS011;41957;52.060;5.138;2022-10-17T14:44:17;11.95;;;3.67;;
56081;SDS011;41957;52.060;5.138;2022-10-17T14:46:46;10.93;;;3.70;;
56081;SDS011;41957;52.060;5.138;2022-10-17T14:49:18;10.88;;;3.58;;
56081;SDS011;41957;52.060;5.138;2022-10-17T14:54:38;12.73;;;4.00;;
56081;SDS011;41957;52.060;5.138;2022-10-17T14:59:55;11.00;;;3.70;;
56081;SDS011;41957;52.060;5.138;2022-10-17T15:02:25;10.35;;;3.58;;
56081;SDS011;41957;52.060;5.138;2022-10-17T15:04:52;10.85;;;3.63;;
56081;SDS011;41957;52.060;5.138;2022-10-17T15:07:17;9.95;;;3.47;;
56081;SDS011;41957;52.060;5.138;2022-10-17T15:09:46;11.15;;;3.80;;
56081;SDS011;41957;52.060;5.138;2022-10-17T15:12:14;10.20;;;3.38;;
56081;SDS011;41957;52.060;5.138;2022-10-17T15:14:41;10.32;;;3.38;;
56081;SDS011;41957;52.060;5.138;2022-10-17T15:17:26;12.00;;;3.72;;
56081;SDS011;41957;52.060;5.138;2022-10-17T15:19:54;11.40;;;3.58;;
56081;SDS011;41957;52.060;5.138;2022-10-17T15:22:21;10.75;;;3.42;;
56081;SDS011;41957;52.060;5.138;2022-10-17T15:24:47;10.10;;;3.30;;
56081;SDS011;41957;52.060;5.138;2022-10-17T15:27:13;10.20;;;2.90;;
56081;SDS011;41957;52.060;5.138;2022-10-17T15:29:45;11.02;;;3.17;;
56081;SDS011;41957;52.060;5.138;2022-10-17T15:32:11;10.68;;;3.20;;
56081;SDS011;41957;52.060;5.138;2022-10-17T15:34:37;10.52;;;3.15;;
56081;SDS011;41957;52.060;5.138;2022-10-17T15:37:03;11.82;;;3.00;;
56081;SDS011;41957;52.060;5.138;2022-10-17T15:39:30;9.73;;;3.05;;
56081;SDS011;41957;52.060;5.138;2022-10-17T15:41:55;13.13;;;3.63;;
56081;SDS011;41957;52.060;5.138;2022-10-17T15:44:21;13.95;;;3.40;;
56081;SDS011;41957;52.060;5.138;2022-10-17T15:46:46;10.07;;;3.20;;
56081;SDS011;41957;52.060;5.138;2022-10-17T15:49:12;9.88;;;3.20;;
56081;SDS011;41957;52.060;5.138;2022-10-17T15:51:41;11.10;;;3.53;;
56081;SDS011;41957;52.060;5.138;2022-10-17T15:54:06;11.88;;;3.60;;
56081;SDS011;41957;52.060;5.138;2022-10-17T15:56:51;12.77;;;3.38;;
56081;SDS011;41957;52.060;5.138;2022-10-17T15:59:19;31.73;;;4.82;;
56081;SDS011;41957;52.060;5.138;2022-10-17T16:01:55;11.13;;;3.30;;
56081;SDS011;41957;52.060;5.138;2022-10-17T16:04:21;14.18;;;3.55;;
56081;SDS011;41957;52.060;5.138;2022-10-17T16:06:48;12.77;;;3.00;;
56081;SDS011;41957;52.060;5.138;2022-10-17T16:09:13;11.20;;;3.03;;
56081;SDS011;41957;52.060;5.138;2022-10-17T16:11:40;10.13;;;3.20;;
56081;SDS011;41957;52.060;5.138;2022-10-17T16:14:09;13.60;;;3.17;;
56081;SDS011;41957;52.060;5.138;2022-10-17T16:16:36;13.75;;;3.97;;
56081;SDS011;41957;52.060;5.138;2022-10-17T16:19:02;13.43;;;3.65;;
56081;SDS011;41957;52.060;5.138;2022-10-17T16:21:30;11.00;;;3.20;;
56081;SDS011;41957;52.060;5.138;2022-10-17T16:23:58;12.20;;;3.50;;
56081;SDS011;41957;52.060;5.138;2022-10-17T16:26:24;9.82;;;3.03;;
56081;SDS011;41957;52.060;5.138;2022-10-17T16:28:50;12.20;;;3.78;;
56081;SDS011;41957;52.060;5.138;2022-10-17T16:31:22;11.35;;;3.22;;
56081;SDS011;41957;52.060;5.138;2022-10-17T16:33:51;17.88;;;3.38;;
56081;SDS011;41957;52.060;5.138;2022-10-17T16:36:17;11.23;;;3.22;;
56081;SDS011;41957;52.060;5.138;2022-10-17T16:38:43;12.05;;;3.40;;
56081;SDS011;41957;52.060;5.138;2022-10-17T16:43:56;9.18;;;2.78;;
56081;SDS011;41957;52.060;5.138;2022-10-17T16:46:23;11.20;;;3.10;;
56081;SDS011;41957;52.060;5.138;2022-10-17T16:48:50;11.82;;;3.40;;
56081;SDS011;41957;52.060;5.138;2022-10-17T16:51:16;10.40;;;2.85;;
56081;SDS011;41957;52.060;5.138;2022-10-17T16:53:44;11.88;;;3.05;;
56081;SDS011;41957;52.060;5.138;2022-10-17T16:56:12;10.63;;;3.40;;
56081;SDS011;41957;52.060;5.138;2022-10-17T16:58:40;12.15;;;3.47;;
56081;SDS011;41957;52.060;5.138;2022-10-17T17:34:38;25.52;;;9.32;;